Time;durP1;ratioP1;P1;durP2;ratioP2;P2;SDS_P1;SDS_P2;PMS_P1;PMS_P2;Temp;Humidity;BMP_temperature;BMP_pressure;BME280_temperature;BME280_humidity;BME280_pressure;Samples;Min_cycle;Max_cycle;Signal;HPM_P1;HPM_P2
2021/10/09 00:00:20;;;;;;;52.83;20.63;;;;;;;4.78;100.00;94525.31;5073156;28;20604;-77
2021/10/09 00:02:46;;;;;;;53.00;20.33;;;;;;;4.70;100.00;94519.25;5072802;28;20202;-77
2021/10/09 00:05:13;;;;;;;52.27;21.20;;;;;;;4.75;100.00;94523.03;5073329;28;20206;-77
2021/10/09 00:07:39;;;;;;;59.77;21.43;;;;;;;4.88;100.00;94508.91;5073331;28;20205;-76
2021/10/09 00:10:07;;;;;;;61.77;23.97;;;;;;;5.14;100.00;94520.16;5058301;28;20199;-77
2021/10/09 00:12:38;;;;;;;49.47;19.90;;;;;;;5.05;100.00;94510.69;5053147;28;20258;-76
2021/10/09 00:15:07;;;;;;;57.03;22.60;;;;;;;5.42;100.00;94511.50;5052925;28;20210;-77
2021/10/09 00:17:34;;;;;;;52.47;21.03;;;;;;;5.33;100.00;94514.00;5058308;28;20546;-76
2021/10/09 00:20:00;;;;;;;43.87;18.83;;;;;;;5.24;100.00;94514.09;5073016;28;20234;-76
2021/10/09 00:22:27;;;;;;;46.27;18.97;;;;;;;5.17;100.00;94511.28;5072752;28;20627;-76
2021/10/09 00:24:53;;;;;;;42.47;17.93;;;;;;;4.95;100.00;94508.19;5073133;28;20198;-76
2021/10/09 00:27:20;;;;;;;41.63;17.90;;;;;;;5.12;100.00;94516.91;5063901;28;20199;-76
2021/10/09 00:29:46;;;;;;;48.50;20.70;;;;;;;5.48;100.00;94509.09;5052564;28;20273;-76
2021/10/09 00:32:14;;;;;;;45.63;18.70;;;;;;;5.44;100.00;94507.78;5063774;28;20230;-77
2021/10/09 00:34:40;;;;;;;43.57;16.90;;;;;;;5.26;100.00;94512.16;5072558;28;20244;-77
2021/10/09 00:37:07;;;;;;;40.83;16.33;;;;;;;5.14;100.00;94516.75;5072851;28;20195;-77
2021/10/09 00:39:33;;;;;;;39.87;16.80;;;;;;;5.05;100.00;94508.13;5072754;28;20225;-76
2021/10/09 00:42:00;;;;;;;38.03;16.90;;;;;;;5.19;100.00;94517.13;5072858;28;20273;-76
2021/10/09 00:44:26;;;;;;;34.30;16.13;;;;;;;5.21;100.00;94511.78;5072605;28;20206;-76
2021/10/09 00:47:00;;;;;;;33.27;15.00;;;;;;;5.18;100.00;94512.94;5072912;28;20203;-76
2021/10/09 00:49:28;;;;;;;37.13;15.83;;;;;;;5.37;100.00;94504.16;5072845;28;20199;-75
2021/10/09 00:51:56;;;;;;;41.10;16.20;;;;;;;5.52;100.00;94502.66;5076380;28;20226;-76
2021/10/09 00:54:23;;;;;;;43.77;15.67;;;;;;;5.59;100.00;94499.47;5076797;28;20347;-76
2021/10/09 00:56:56;;;;;;;32.60;14.67;;;;;;;5.63;100.00;94493.00;5076044;28;20715;-76
2021/10/09 00:59:26;;;;;;;27.40;12.90;;;;;;;5.60;100.00;94506.28;5076777;28;20256;-76
2021/10/09 01:01:53;;;;;;;26.63;13.33;;;;;;;5.44;100.00;94499.19;5076430;28;20624;-76
2021/10/09 01:04:19;;;;;;;26.37;12.53;;;;;;;5.34;100.00;94489.72;5076436;28;20229;-76
2021/10/09 01:06:47;;;;;;;33.90;13.37;;;;;;;5.35;100.00;94490.56;5076302;28;20206;-77
2021/10/09 01:09:14;;;;;;;33.40;14.53;;;;;;;5.33;100.00;94482.13;5076229;28;20199;-77
2021/10/09 01:11:43;;;;;;;31.33;14.43;;;;;;;5.02;100.00;94495.47;5076511;28;20234;-77
2021/10/09 01:14:10;;;;;;;33.37;14.60;;;;;;;4.79;100.00;94495.09;5076301;28;20198;-77
2021/10/09 01:16:37;;;;;;;44.50;14.90;;;;;;;4.60;100.00;94496.84;5076403;28;20198;-77
2021/10/09 01:19:03;;;;;;;30.57;14.33;;;;;;;4.90;100.00;94491.50;5076349;28;20198;-76
2021/10/09 01:21:40;;;;;;;42.00;17.63;;;;;;;5.19;100.00;94489.44;5074980;28;20449;-76
2021/10/09 01:24:07;;;;;;;41.33;17.20;;;;;;;5.10;100.00;94482.59;5076000;28;20210;-76
2021/10/09 01:26:33;;;;;;;35.40;16.23;;;;;;;4.97;100.00;94489.91;5075850;28;20630;-79
2021/10/09 01:29:02;;;;;;;31.97;13.77;;;;;;;4.75;100.00;94486.81;5076191;28;20556;-79
2021/10/09 01:31:29;;;;;;;41.42;18.10;;;;;;;4.90;100.00;94478.56;5075384;28;20909;-77
2021/10/09 01:33:56;;;;;;;32.37;14.43;;;;;;;4.93;100.00;94486.00;5075840;28;20653;-79
2021/10/09 01:36:22;;;;;;;36.97;15.53;;;;;;;4.81;100.00;94478.47;5075874;28;20199;-78
2021/10/09 01:38:51;;;;;;;29.60;14.10;;;;;;;5.32;100.00;94483.09;5074630;28;20195;-79
2021/10/09 01:41:18;;;;;;;30.90;14.20;;;;;;;5.62;100.00;94487.00;5075650;28;20203;-78
2021/10/09 01:43:44;;;;;;;31.10;14.07;;;;;;;5.59;100.00;94486.50;5075967;28;20268;-78
2021/10/09 01:46:11;;;;;;;28.23;13.93;;;;;;;5.72;100.00;94490.31;5075385;28;20202;-78
2021/10/09 01:48:40;;;;;;;32.20;14.07;;;;;;;6.10;100.00;94484.88;5075887;28;20290;-78
2021/10/09 01:51:09;;;;;;;29.90;12.40;;;;;;;5.91;100.00;94486.72;5075479;28;20653;-78
2021/10/09 01:53:36;;;;;;;27.57;12.57;;;;;;;5.68;100.00;94491.59;5075894;28;20584;-78
2021/10/09 01:56:05;;;;;;;33.70;14.27;;;;;;;5.59;100.00;94487.31;5075686;28;20203;-78
2021/10/09 01:58:32;;;;;;;53.73;15.03;;;;;;;5.96;100.00;94477.66;5075628;28;20209;-77
2021/10/09 02:01:00;;;;;;;32.63;14.40;;;;;;;6.01;100.00;94478.03;5075351;28;20203;-78
2021/10/09 02:03:26;;;;;;;29.07;13.53;;;;;;;5.97;100.00;94476.72;5074416;28;20225;-79
2021/10/09 02:05:53;;;;;;;38.10;15.77;;;;;;;6.14;100.00;94480.19;5075393;28;20195;-78
2021/10/09 02:08:20;;;;;;;36.47;15.03;;;;;;;6.23;100.00;94474.09;5075603;28;20222;-78
2021/10/09 02:10:52;;;;;;;27.70;13.40;;;;;;;6.11;100.00;94476.13;5075456;28;20210;-78
2021/10/09 02:13:23;;;;;;;27.93;13.03;;;;;;;6.16;100.00;94468.72;5075241;28;20230;-78
2021/10/09 02:15:53;;;;;;;26.07;13.07;;;;;;;6.13;100.00;94466.44;5075404;28;20203;-78
2021/10/09 02:18:31;;;;;;;32.27;13.47;;;;;;;6.06;100.00;94457.63;5075068;28;20203;-78
2021/10/09 02:26:26;;;;;;;32.03;13.60;;;;;;;6.36;100.00;94450.28;5074884;28;20656;-78
2021/10/09 02:28:54;;;;;;;32.53;13.33;;;;;;;6.40;100.00;94459.41;5075125;28;20206;-78
2021/10/09 02:31:20;;;;;;;42.20;14.17;;;;;;;6.58;100.00;94451.50;5074412;28;20203;-78
2021/10/09 02:33:46;;;;;;;26.77;13.10;;;;;;;6.54;100.00;94440.59;5075001;28;20198;-78
2021/10/09 02:36:13;;;;;;;27.67;12.77;;;;;;;6.10;100.00;94456.38;5074529;28;20213;-79
2021/10/09 02:38:39;;;;;;;33.77;14.13;;;;;;;5.50;100.00;94452.78;5074793;28;20202;-78
2021/10/09 02:41:06;;;;;;;36.43;14.40;;;;;;;5.19;100.00;94448.03;5074645;28;20249;-79
2021/10/09 02:43:32;;;;;;;34.53;15.33;;;;;;;5.33;100.00;94454.47;5074945;28;20210;-79
2021/10/09 02:46:00;;;;;;;36.80;15.93;;;;;;;5.50;100.00;94439.03;5074883;28;20248;-78
2021/10/09 02:48:27;;;;;;;41.20;17.30;;;;;;;6.02;100.00;94453.75;5074606;28;20198;-78
2021/10/09 02:50:53;;;;;;;36.67;17.43;;;;;;;6.08;100.00;94453.13;5074230;28;20210;-78
2021/10/09 02:53:20;;;;;;;40.38;17.50;;;;;;;6.33;100.00;94450.59;5074197;28;20968;-78
2021/10/09 02:55:46;;;;;;;39.87;16.77;;;;;;;6.54;100.00;94447.59;5074364;28;20268;-79
2021/10/09 02:58:13;;;;;;;35.43;16.40;;;;;;;6.71;100.00;94457.03;5074489;28;20252;-79
2021/10/09 03:00:39;;;;;;;33.70;16.03;;;;;;;6.85;100.00;94459.00;5074459;28;20256;-78
2021/10/09 03:03:08;;;;;;;32.10;14.60;;;;;;;6.82;100.00;94458.50;5074328;28;20202;-79
2021/10/09 03:05:35;;;;;;;35.70;14.53;;;;;;;6.97;100.00;94461.28;5074216;28;20234;-79
2021/10/09 03:08:01;;;;;;;36.70;15.67;;;;;;;6.94;100.00;94459.81;5073576;28;20596;-79
2021/10/09 03:10:28;;;;;;;28.10;13.27;;;;;;;7.00;100.00;94455.78;5074086;28;20202;-78
2021/10/09 03:12:58;;;;;;;35.80;14.60;;;;;;;7.05;100.00;94448.31;5073698;28;20234;-78
2021/10/09 03:15:27;;;;;;;30.80;14.07;;;;;;;6.98;100.00;94447.34;5074020;28;20253;-78
2021/10/09 03:17:53;;;;;;;38.27;14.43;;;;;;;7.01;100.00;94441.81;5073975;28;20245;-79
2021/10/09 03:20:21;;;;;;;31.87;14.37;;;;;;;6.99;100.00;94451.53;5073803;28;20256;-78
2021/10/09 03:22:52;;;;;;;29.33;14.07;;;;;;;6.96;100.00;94444.06;5073514;28;20747;-78
2021/10/09 03:25:19;;;;;;;31.63;14.20;;;;;;;7.00;100.00;94456.56;5073934;28;20202;-79
2021/10/09 03:27:47;;;;;;;39.63;14.43;;;;;;;6.98;100.00;94450.75;5073690;28;20653;-78
2021/10/09 03:30:14;;;;;;;29.47;14.80;;;;;;;7.06;100.00;94454.31;5073278;28;20205;-79
2021/10/09 03:32:42;;;;;;;33.47;13.90;;;;;;;7.02;100.00;94457.22;5073630;28;20627;-78
2021/10/09 03:35:10;;;;;;;32.37;14.03;;;;;;;7.06;100.00;94469.88;5073467;28;20696;-78
2021/10/09 03:37:40;;;;;;;30.20;13.50;;;;;;;7.06;100.00;94459.50;5073730;28;20263;-79
2021/10/09 03:40:10;;;;;;;29.73;14.63;;;;;;;7.15;100.00;94454.16;5073819;28;20209;-78
2021/10/09 03:42:40;;;;;;;27.77;13.77;;;;;;;7.13;100.00;94465.69;5073610;28;20206;-79
2021/10/09 03:45:14;;;;;;;30.50;13.60;;;;;;;7.14;100.00;94462.09;5073368;28;20783;-79
2021/10/09 03:48:05;;;;;;;31.87;14.17;;;;;;;7.17;100.00;94464.38;5073246;28;20594;-79
2021/10/09 03:53:21;;;;;;;32.73;13.67;;;;;;;7.23;100.00;94455.94;5073202;28;20238;-79
2021/10/09 03:55:47;;;;;;;33.90;15.02;;;;;;;7.26;100.00;94454.78;5072752;28;20434;-78
2021/10/09 03:58:16;;;;;;;31.30;14.43;;;;;;;7.23;100.00;94458.53;5073096;28;20260;-77
2021/10/09 04:00:42;;;;;;;27.37;13.63;;;;;;;7.18;100.00;94458.22;5073405;28;20260;-79
2021/10/09 04:03:09;;;;;;;25.13;12.50;;;;;;;7.12;100.00;94449.28;5073374;28;20261;-79
2021/10/09 04:05:35;;;;;;;31.60;13.37;;;;;;;7.14;100.00;94454.31;5073214;28;20199;-78
2021/10/09 04:08:08;;;;;;;32.23;13.97;;;;;;;7.16;100.00;94457.53;5073056;28;20646;-78
2021/10/09 04:10:37;;;;;;;33.63;13.27;;;;;;;7.19;100.00;94454.63;5073025;28;20203;-78
2021/10/09 04:13:06;;;;;;;38.63;14.27;;;;;;;7.16;100.00;94455.78;5072510;28;20230;-78
2021/10/09 04:15:33;;;;;;;27.70;12.50;;;;;;;7.08;100.00;94460.13;5072990;28;20649;-80
2021/10/09 04:17:59;;;;;;;29.30;13.57;;;;;;;7.03;100.00;94460.66;5072857;28;20285;-79
2021/10/09 04:20:26;;;;;;;30.10;13.13;;;;;;;6.93;100.00;94463.41;5073369;28;20256;-79
2021/10/09 04:22:52;;;;;;;29.03;13.20;;;;;;;6.89;100.00;94456.88;5072857;28;20635;-79
2021/10/09 04:25:19;;;;;;;35.97;13.73;;;;;;;6.94;100.00;94459.00;5071676;28;20264;-79
2021/10/09 04:27:47;;;;;;;28.10;13.40;;;;;;;6.89;100.00;94459.47;5072563;28;20202;-78
2021/10/09 04:30:15;;;;;;;29.83;12.90;;;;;;;6.82;100.00;94467.09;5072947;28;20206;-79
2021/10/09 04:32:42;;;;;;;30.77;13.37;;;;;;;6.76;100.00;94453.94;5072256;28;20659;-79
2021/10/09 04:35:08;;;;;;;29.70;13.50;;;;;;;6.85;100.00;94453.00;5072898;28;20202;-78
2021/10/09 04:37:35;;;;;;;30.87;14.60;;;;;;;6.91;100.00;94459.31;5072759;28;20199;-79
2021/10/09 04:40:02;;;;;;;27.10;12.93;;;;;;;6.79;100.00;94454.44;5072687;28;20203;-79
2021/10/09 04:42:28;;;;;;;30.50;14.27;;;;;;;6.84;100.00;94461.75;5072670;28;20665;-78
2021/10/09 04:44:56;;;;;;;37.87;14.57;;;;;;;6.83;100.00;94457.53;5072886;28;20203;-77
2021/10/09 04:47:22;;;;;;;34.90;14.83;;;;;;;6.86;100.00;94444.22;5072367;28;20202;-78
2021/10/09 04:49:49;;;;;;;30.53;14.67;;;;;;;6.83;100.00;94454.94;5072685;28;20294;-78
2021/10/09 04:52:16;;;;;;;29.97;13.30;;;;;;;6.76;100.00;94465.16;5072381;28;20198;-79
2021/10/09 04:54:43;;;;;;;30.53;14.93;;;;;;;6.74;100.00;94458.50;5072733;28;20207;-78
2021/10/09 04:57:11;;;;;;;32.27;14.00;;;;;;;6.64;100.00;94456.03;5072688;28;20592;-79
2021/10/09 04:59:40;;;;;;;31.40;14.10;;;;;;;6.60;100.00;94465.13;5072681;28;20277;-78
2021/10/09 05:02:08;;;;;;;29.23;14.67;;;;;;;6.61;100.00;94462.38;5072435;28;20202;-79
2021/10/09 05:04:36;;;;;;;30.27;14.40;;;;;;;6.53;100.00;94467.53;5072521;28;20199;-79
2021/10/09 05:07:06;;;;;;;28.30;14.33;;;;;;;6.56;100.00;94469.81;5071993;28;20362;-78
2021/10/09 05:09:34;;;;;;;28.27;14.50;;;;;;;6.41;100.00;94474.81;5072601;28;20203;-77
2021/10/09 05:12:00;;;;;;;29.40;14.73;;;;;;;6.37;100.00;94468.28;5072417;28;20199;-78
2021/10/09 05:14:28;;;;;;;30.33;14.47;;;;;;;6.32;100.00;94473.13;5072439;28;20233;-78
2021/10/09 05:16:55;;;;;;;36.57;15.10;;;;;;;6.30;100.00;94473.28;5072408;28;20649;-78
2021/10/09 05:19:23;;;;;;;34.07;14.17;;;;;;;6.06;100.00;94471.44;5072295;28;20206;-78
2021/10/09 05:21:49;;;;;;;32.27;14.27;;;;;;;6.10;100.00;94472.72;5072189;28;20234;-78
2021/10/09 05:24:20;;;;;;;32.77;15.17;;;;;;;6.00;100.00;94472.03;5072137;28;20268;-78
2021/10/09 05:26:47;;;;;;;31.37;14.80;;;;;;;6.00;100.00;94468.66;5072584;28;20199;-78
2021/10/09 05:29:16;;;;;;;37.33;15.63;;;;;;;6.01;100.00;94472.84;5072280;28;20248;-78
2021/10/09 05:31:42;;;;;;;43.33;16.07;;;;;;;5.93;100.00;94473.59;5072245;28;20231;-78
2021/10/09 05:34:09;;;;;;;34.53;15.57;;;;;;;5.86;100.00;94480.34;5072121;28;20231;-77
2021/10/09 05:36:37;;;;;;;34.77;15.50;;;;;;;5.85;100.00;94474.38;5072663;28;20206;-77
2021/10/09 05:39:04;;;;;;;34.00;16.70;;;;;;;5.91;100.00;94478.09;5075909;28;20259;-78
2021/10/09 05:41:32;;;;;;;33.20;15.20;;;;;;;5.84;100.00;94480.50;5075206;28;20286;-78
2021/10/09 05:43:59;;;;;;;34.03;16.23;;;;;;;5.88;100.00;94479.25;5075777;28;20195;-77
2021/10/09 05:46:32;;;;;;;37.00;16.97;;;;;;;6.00;100.00;94481.59;5075580;28;20245;-77
2021/10/09 05:48:59;;;;;;;34.50;15.00;;;;;;;5.92;100.00;94497.88;5075813;28;20623;-78
2021/10/09 05:51:32;;;;;;;32.53;15.77;;;;;;;6.01;100.00;94490.97;5075783;28;20209;-77
2021/10/09 05:54:15;;;;;;;29.77;14.97;;;;;;;6.05;100.00;94489.72;5075460;28;20756;-79
2021/10/09 05:56:51;;;;;;;32.90;15.07;;;;;;;6.02;100.00;94492.63;5075535;28;20226;-78
2021/10/09 05:59:34;;;;;;;37.03;15.23;;;;;;;6.01;100.00;94490.97;5074845;28;20289;-78
2021/10/09 06:02:23;;;;;;;36.00;14.03;;;;;;;6.04;100.00;94495.88;5075294;28;20203;-78
2021/10/09 06:44:01;;;;;;;42.60;19.23;;;;;;;4.97;100.00;94513.22;5054609;28;20203;-78
2021/10/09 07:00:21;;;;;;;42.07;19.33;;;;;;;4.62;100.00;94538.06;5054368;28;20611;-78
2021/10/09 07:02:47;;;;;;;42.07;20.43;;;;;;;4.51;100.00;94553.78;5054230;28;20204;-78
2021/10/09 07:05:15;;;;;;;48.43;20.67;;;;;;;4.36;100.00;94541.31;5054199;28;20256;-77
2021/10/09 07:07:43;;;;;;;42.57;19.33;;;;;;;4.39;100.00;94543.63;5054065;28;20306;-78
2021/10/09 07:10:12;;;;;;;63.07;21.97;;;;;;;4.33;100.00;94545.97;5054092;28;20214;-77
2021/10/09 07:12:39;;;;;;;61.17;23.50;;;;;;;4.48;100.00;94548.91;5053690;28;20270;-76
2021/10/09 07:15:08;;;;;;;160.83;24.50;;;;;;;4.39;100.00;94553.97;5054180;28;20254;-77
2021/10/09 07:17:36;;;;;;;97.33;23.07;;;;;;;4.47;100.00;94553.25;5053837;28;20208;-77
2021/10/09 07:20:09;;;;;;;147.90;23.37;;;;;;;4.42;100.00;94558.06;5053806;28;20195;-77
2021/10/09 07:22:36;;;;;;;102.03;23.00;;;;;;;4.43;100.00;94560.50;5053686;28;20711;-77
2021/10/09 07:25:03;;;;;;;51.60;22.63;;;;;;;4.61;100.00;94565.72;5053857;28;20203;-78
2021/10/09 07:27:37;;;;;;;67.50;22.37;;;;;;;4.64;100.00;94564.59;5053575;28;20298;-77
2021/10/09 07:30:06;;;;;;;53.50;22.50;;;;;;;4.65;100.00;94561.06;5053515;28;20287;-77
2021/10/09 07:32:32;;;;;;;50.30;23.60;;;;;;;4.89;100.00;94555.34;5053464;28;20199;-78
2021/10/09 07:35:00;;;;;;;56.83;23.53;;;;;;;4.96;100.00;94561.56;5053387;28;20322;-77
2021/10/09 07:37:30;;;;;;;48.90;22.30;;;;;;;5.16;100.00;94558.81;5053725;28;20298;-77
2021/10/09 07:39:58;;;;;;;48.47;21.13;;;;;;;5.50;100.00;94560.75;5053493;28;20200;-77
2021/10/09 07:42:30;;;;;;;36.07;17.27;;;;;;;5.88;100.00;94569.13;5053582;28;20207;-77
2021/10/09 07:44:56;;;;;;;51.53;18.53;;;;;;;5.75;100.00;94565.16;5052977;28;20566;-77
2021/10/09 07:47:23;;;;;;;47.27;19.93;;;;;;;5.55;100.00;94572.28;5053318;28;20195;-77
2021/10/09 07:49:52;;;;;;;59.13;19.30;;;;;;;5.48;100.00;94568.66;5053351;28;20203;-77
2021/10/09 07:52:26;;;;;;;43.30;20.10;;;;;;;5.46;100.00;94573.19;5053569;28;20207;-77
2021/10/09 07:54:54;;;;;;;44.50;20.33;;;;;;;5.60;100.00;94571.03;5053238;28;20141;-77
2021/10/09 07:57:23;;;;;;;46.93;21.67;;;;;;;5.74;100.00;94567.88;5067746;28;20203;-79
2021/10/09 07:59:50;;;;;;;44.70;22.77;;;;;;;6.17;100.00;94568.03;5072439;28;20208;-77
2021/10/09 08:02:19;;;;;;;40.83;20.67;;;;;;;6.16;100.00;94575.00;5072707;28;20600;-77
2021/10/09 08:04:45;;;;;;;38.80;14.60;;;;;;;6.76;100.00;94568.13;5073100;28;20297;-78
2021/10/09 08:07:11;;;;;;;34.87;18.93;;;;;;;6.87;100.00;94572.22;5073029;28;20195;-78
2021/10/09 08:09:40;;;;;;;34.27;17.93;;;;;;;6.74;100.00;94564.88;5073007;28;20198;-76
2021/10/09 08:12:15;;;;;;;34.00;17.80;;;;;;;6.57;100.00;94567.41;5072866;28;20252;-78
2021/10/09 08:14:43;;;;;;;35.40;17.83;;;;;;;6.50;100.00;94569.00;5073035;28;20699;-76
2021/10/09 08:17:11;;;;;;;35.73;19.40;;;;;;;6.53;100.00;94578.25;5072506;28;20245;-77
2021/10/09 08:19:39;;;;;;;43.37;18.53;;;;;;;6.57;100.00;94566.59;5072871;28;20203;-77
2021/10/09 08:22:10;;;;;;;33.63;18.70;;;;;;;6.66;100.00;94574.28;5072928;28;20296;-76
2021/10/09 08:24:39;;;;;;;33.90;18.23;;;;;;;6.75;100.00;94584.69;5072875;28;20260;-77
2021/10/09 08:35:37;;;;;;;27.83;10.90;;;;;;;8.47;100.00;94563.94;5072732;28;20198;-78
2021/10/09 08:40:57;;;;;;;19.27;9.00;;;;;;;8.73;100.00;94572.47;5072764;28;20194;-77
2021/10/09 08:43:42;;;;;;;19.80;8.90;;;;;;;8.84;100.00;94578.16;5072581;28;20667;-76
2021/10/09 08:46:08;;;;;;;18.77;8.65;;;;;;;9.18;100.00;94571.78;5071483;28;20859;-77
2021/10/09 08:48:40;;;;;;;19.50;7.37;;;;;;;9.31;100.00;94581.66;5072606;28;20206;-77
2021/10/09 08:51:09;;;;;;;17.03;7.80;;;;;;;9.43;100.00;94579.44;5072370;28;20199;-77
2021/10/09 08:53:41;;;;;;;14.47;7.30;;;;;;;9.52;100.00;94578.38;5072090;28;20226;-77
2021/10/09 08:56:13;;;;;;;15.63;7.43;;;;;;;9.53;100.00;94580.03;5072294;28;20564;-77
2021/10/09 08:58:43;;;;;;;16.58;8.10;;;;;;;9.58;100.00;94582.13;5071551;28;20426;-76
2021/10/09 09:01:23;;;;;;;12.20;6.63;;;;;;;9.65;100.00;94577.00;5072371;28;20677;-76
2021/10/09 09:07:16;;;;;;;16.03;7.20;;;;;;;9.76;100.00;94576.63;5069565;28;20202;-76
2021/10/09 09:32:43;;;;;;;12.37;5.80;;;;;;;10.32;95.97;94577.09;5076014;28;20213;-76
2021/10/09 09:35:24;;;;;;;17.70;5.90;;;;;;;10.37;97.38;94579.16;5075467;28;20312;-76
2021/10/09 09:40:39;;;;;;;17.20;6.30;;;;;;;10.61;95.20;94577.28;5075470;28;20244;-77
2021/10/09 09:43:07;;;;;;;11.30;5.33;;;;;;;10.59;97.02;94574.03;5075700;28;20238;-77
2021/10/09 09:45:34;;;;;;;11.23;6.10;;;;;;;10.61;96.90;94583.34;5075935;28;20217;-77
2021/10/09 09:48:01;;;;;;;17.43;6.40;;;;;;;10.67;96.17;94581.78;5074904;28;20437;-77
2021/10/09 09:50:29;;;;;;;10.90;6.37;;;;;;;10.73;97.14;94566.19;5075262;28;20202;-77
2021/10/09 09:52:56;;;;;;;11.27;5.40;;;;;;;10.73;96.70;94573.25;5075661;28;20683;-77
2021/10/09 09:55:22;;;;;;;11.53;4.97;;;;;;;10.98;93.91;94572.94;5075552;28;20271;-77
2021/10/09 09:57:50;;;;;;;9.97;5.00;;;;;;;11.06;94.60;94578.06;5075438;28;20558;-77
2021/10/09 10:00:17;;;;;;;10.40;4.97;;;;;;;11.18;89.99;94568.75;5075455;28;20199;-77
2021/10/09 10:02:48;;;;;;;11.63;5.43;;;;;;;11.43;90.17;94565.78;5075301;28;20589;-77
2021/10/09 10:05:16;;;;;;;14.40;5.13;;;;;;;11.41;84.92;94573.81;5092618;28;20657;-76
2021/10/09 10:07:43;;;;;;;8.93;4.70;;;;;;;11.40;84.84;94569.56;5095234;28;20648;-78
2021/10/09 10:10:11;;;;;;;16.47;4.43;;;;;;;11.39;84.92;94570.59;5095527;28;20199;-78
2021/10/09 10:12:39;;;;;;;8.88;4.40;;;;;;;11.42;82.82;94574.63;5095480;28;20606;-79
2021/10/09 10:15:08;;;;;;;10.77;4.40;;;;;;;11.59;84.49;94575.19;5095013;28;20561;-77
2021/10/09 10:17:40;;;;;;;8.98;4.25;;;;;;;11.80;84.14;94572.56;5095566;28;20255;-77
2021/10/09 10:20:09;;;;;;;9.77;4.77;;;;;;;11.82;83.06;94575.00;5095258;28;20202;-79
2021/10/09 10:22:57;;;;;;;7.90;3.65;;;;;;;11.84;82.42;94573.03;5093837;28;20258;-79
2021/10/09 10:25:35;;;;;;;7.47;4.03;;;;;;;11.93;80.72;94573.72;5095156;28;20284;-77
2021/10/09 10:28:03;;;;;;;8.35;4.28;;;;;;;11.79;78.37;94570.13;5095044;28;20224;-77
2021/10/09 10:30:33;;;;;;;8.63;4.07;;;;;;;11.76;77.73;94579.19;5094949;28;20194;-77
2021/10/09 10:33:24;;;;;;;9.93;3.73;;;;;;;11.82;75.54;94573.22;5094970;28;20198;-77
2021/10/09 10:35:51;;;;;;;11.50;4.55;;;;;;;11.82;73.81;94575.81;5074198;28;20195;-77
2021/10/09 10:38:43;;;;;;;7.35;3.45;;;;;;;11.97;76.82;94588.03;5074825;28;20202;-76
2021/10/09 10:41:12;;;;;;;9.35;4.30;;;;;;;11.82;77.29;94594.13;5074406;28;20199;-77
2021/10/09 10:43:42;;;;;;;11.95;3.78;;;;;;;11.79;72.32;94591.91;5074600;28;20653;-77
2021/10/09 10:46:34;;;;;;;8.68;4.50;;;;;;;11.93;80.04;94597.28;5074541;28;20199;-77
2021/10/09 10:49:05;;;;;;;7.72;4.00;;;;;;;11.99;72.44;94597.34;5074485;28;20198;-78
2021/10/09 10:51:48;;;;;;;10.57;4.85;;;;;;;11.90;74.03;94595.00;5074491;28;20206;-77
2021/10/09 10:57:24;;;;;;;13.75;4.63;;;;;;;11.91;73.20;94583.53;5073980;28;20203;-77
2021/10/09 10:59:55;;;;;;;10.50;4.20;;;;;;;11.96;73.90;94582.00;5074424;28;20203;-77
2021/10/09 11:02:23;;;;;;;10.35;4.53;;;;;;;12.20;73.90;94590.44;5074285;28;20195;-78
2021/10/09 11:04:51;;;;;;;15.93;4.60;;;;;;;12.21;76.95;94586.84;5074060;28;20604;-78
2021/10/09 11:07:19;;;;;;;10.40;4.57;;;;;;;12.21;71.74;94585.00;5074030;28;20236;-78
2021/10/09 11:09:49;;;;;;;9.18;4.20;;;;;;;12.31;74.06;94589.13;5073929;28;20526;-78
2021/10/09 11:12:23;;;;;;;6.85;3.60;;;;;;;12.40;72.74;94582.72;5074087;28;20256;-78
2021/10/09 11:14:50;;;;;;;12.65;4.00;;;;;;;12.48;74.07;94584.41;5073999;28;20276;-78
2021/10/09 11:17:17;;;;;;;6.55;3.90;;;;;;;12.55;69.76;94580.00;5073595;28;20222;-77
2021/10/09 11:19:46;;;;;;;13.25;4.28;;;;;;;12.64;75.11;94580.66;5073709;28;20692;-77
2021/10/09 11:22:13;;;;;;;8.95;3.58;;;;;;;12.63;68.74;94585.09;5073728;28;20280;-76
2021/10/09 11:24:44;;;;;;;8.00;3.40;;;;;;;12.71;71.07;94571.03;5073987;28;20233;-78
2021/10/09 11:27:12;;;;;;;5.93;3.10;;;;;;;12.76;71.12;94581.75;5073958;28;20202;-78
2021/10/09 11:29:40;;;;;;;9.70;3.60;;;;;;;12.76;65.31;94574.69;5073704;28;20210;-79
2021/10/09 11:32:09;;;;;;;6.10;3.28;;;;;;;12.88;65.52;94572.31;5072757;28;20194;-79
2021/10/09 11:34:49;;;;;;;7.68;3.67;;;;;;;12.80;65.84;94577.72;5071598;28;20291;-77
2021/10/09 11:37:16;;;;;;;7.53;3.10;;;;;;;12.89;63.29;94579.19;5072648;28;20195;-76
2021/10/09 11:39:47;;;;;;;7.70;3.45;;;;;;;13.00;64.05;94582.25;5072698;28;20298;-77
2021/10/09 11:42:18;;;;;;;7.68;3.80;;;;;;;13.13;65.89;94585.72;5072597;28;20626;-77
2021/10/09 11:44:49;;;;;;;8.82;3.45;;;;;;;12.87;67.06;94573.34;5072445;28;20203;-78
2021/10/09 11:47:37;;;;;;;8.63;3.33;;;;;;;12.94;69.23;94570.75;5072595;28;20195;-78
2021/10/09 11:55:34;;;;;;;12.07;3.47;;;;;;;13.14;71.00;94576.06;5072269;28;20267;-79
2021/10/09 11:58:05;;;;;;;9.60;3.53;;;;;;;13.26;70.04;94573.69;5072422;28;20202;-77
2021/10/09 12:00:41;;;;;;;9.10;3.17;;;;;;;13.45;67.00;94570.31;5072328;28;20260;-78
2021/10/09 12:03:30;;;;;;;5.47;3.47;;;;;;;13.57;72.42;94567.91;5072460;28;20198;-78
2021/10/09 12:05:59;;;;;;;8.10;3.80;;;;;;;13.48;72.64;94567.31;5072299;28;20233;-77
2021/10/09 12:08:26;;;;;;;8.20;4.20;;;;;;;13.40;69.58;94566.69;5071983;28;20207;-77
2021/10/09 12:11:09;;;;;;;7.72;3.72;;;;;;;13.54;74.61;94557.00;5072058;28;20566;-78
2021/10/09 12:13:49;;;;;;;10.07;3.90;;;;;;;13.63;73.45;94556.63;5072105;28;20293;-78
2021/10/09 12:16:16;;;;;;;5.97;3.88;;;;;;;13.59;65.01;94560.69;5071908;28;20774;-78
2021/10/09 12:18:46;;;;;;;8.77;4.00;;;;;;;13.65;68.30;94551.19;5072093;28;20624;-76
2021/10/09 12:21:13;;;;;;;8.55;4.03;;;;;;;13.63;67.96;94547.97;5071995;28;20210;-78
2021/10/09 12:23:39;;;;;;;8.10;4.20;;;;;;;13.76;66.02;94552.44;5071855;28;20542;-78
2021/10/09 12:26:16;;;;;;;7.55;4.40;;;;;;;13.63;70.74;94556.63;5071869;28;20206;-78
2021/10/09 12:29:13;;;;;;;11.25;4.45;;;;;;;13.67;69.76;94547.38;5073102;28;20209;-77
2021/10/09 12:31:44;;;;;;;9.77;3.58;;;;;;;13.62;67.37;94548.97;5071860;28;20202;-77
2021/10/09 12:34:41;;;;;;;10.93;3.78;;;;;;;13.61;65.84;94553.41;5071881;28;20205;-77
2021/10/09 12:37:14;;;;;;;7.90;3.13;;;;;;;13.82;64.16;94559.47;5009737;28;20211;-78
2021/10/09 12:39:40;;;;;;;6.32;3.20;;;;;;;13.40;58.13;94556.19;5060067;28;20203;-79
2021/10/09 12:42:07;;;;;;;6.72;3.03;;;;;;;13.47;63.97;94552.59;5071754;28;20195;-78
2021/10/09 12:44:35;;;;;;;6.07;3.10;;;;;;;13.66;64.74;94551.00;5071961;28;20210;-77
2021/10/09 12:47:01;;;;;;;8.57;3.50;;;;;;;13.71;61.00;94542.53;5074481;28;20206;-77
2021/10/09 12:49:32;;;;;;;7.57;3.17;;;;;;;13.79;64.13;94544.94;5075615;28;20207;-79
2021/10/09 12:51:58;;;;;;;7.22;3.50;;;;;;;14.03;69.36;94546.16;5075985;28;20221;-79
2021/10/09 12:54:26;;;;;;;7.80;3.30;;;;;;;13.98;62.67;94530.19;5075643;28;20194;-78
2021/10/09 12:56:56;;;;;;;10.40;4.05;;;;;;;13.96;67.04;94539.31;5076096;28;20260;-78
2021/10/09 12:59:22;;;;;;;6.97;3.53;;;;;;;13.86;67.08;94540.50;5075589;28;20718;-78
2021/10/09 13:01:50;;;;;;;5.00;3.10;;;;;;;14.26;64.37;94542.31;5075513;28;20199;-77
2021/10/09 13:04:16;;;;;;;7.82;4.00;;;;;;;14.30;58.15;94525.13;5075488;28;20203;-78
2021/10/09 13:06:43;;;;;;;12.80;3.70;;;;;;;14.16;65.04;94540.09;5075294;28;20657;-77
2021/10/09 13:09:11;;;;;;;8.02;3.85;;;;;;;13.98;62.54;94532.03;5075450;28;20241;-78
2021/10/09 13:11:46;;;;;;;8.85;4.30;;;;;;;13.73;60.26;94537.06;5075315;28;20202;-78
2021/10/09 13:14:13;;;;;;;9.77;4.10;;;;;;;13.77;63.36;94531.22;5075342;28;20198;-79
2021/10/09 13:16:39;;;;;;;7.18;3.85;;;;;;;13.92;63.63;94533.63;5075278;28;20304;-78
2021/10/09 13:19:07;;;;;;;9.18;4.57;;;;;;;13.90;61.00;94530.41;5074954;28;20661;-78
2021/10/09 13:21:37;;;;;;;9.40;3.88;;;;;;;13.92;59.78;94535.44;5075017;28;20697;-77